sensor_id;sensor_type;location;lat;lon;timestamp;pressure;altitude;pressure_sealevel;temperature;humidity
10948;BME280;5526;42.070;24.752;2022-07-29T00:02:17;98994.00;;;23.99;70.01
10948;BME280;5526;42.070;24.752;2022-07-29T00:04:45;98985.72;;;23.92;70.15
10948;BME280;5526;42.070;24.752;2022-07-29T00:07:12;98986.19;;;23.94;70.29
10948;BME280;5526;42.070;24.752;2022-07-29T00:09:39;98990.53;;;23.87;70.82
10948;BME280;5526;42.070;24.752;2022-07-29T00:12:06;98987.06;;;23.86;71.03
10948;BME280;5526;42.070;24.752;2022-07-29T00:14:34;98981.78;;;23.90;71.41
10948;BME280;5526;42.070;24.752;2022-07-29T00:17:03;98989.22;;;23.93;71.84
10948;BME280;5526;42.070;24.752;2022-07-29T00:19:30;98985.28;;;23.90;71.78
10948;BME280;5526;42.070;24.752;2022-07-29T00:21:57;98980.66;;;23.91;71.71
10948;BME280;5526;42.070;24.752;2022-07-29T00:24:25;98969.84;;;23.75;72.93
10948;BME280;5526;42.070;24.752;2022-07-29T00:26:52;98981.59;;;23.71;73.42
10948;BME280;5526;42.070;24.752;2022-07-29T00:29:19;98983.75;;;23.77;73.10
10948;BME280;5526;42.070;24.752;2022-07-29T00:31:46;98983.63;;;23.74;73.90
10948;BME280;5526;42.070;24.752;2022-07-29T00:34:15;98984.41;;;23.74;73.94
10948;BME280;5526;42.070;24.752;2022-07-29T00:36:59;98978.59;;;23.72;73.54
10948;BME280;5526;42.070;24.752;2022-07-29T00:39:27;98983.53;;;23.70;73.61
10948;BME280;5526;42.070;24.752;2022-07-29T00:41:54;98981.50;;;23.67;73.96
10948;BME280;5526;42.070;24.752;2022-07-29T00:44:21;98981.84;;;23.66;74.22
10948;BME280;5526;42.070;24.752;2022-07-29T00:46:48;98976.94;;;23.68;73.92
10948;BME280;5526;42.070;24.752;2022-07-29T00:49:17;98988.69;;;23.63;74.22
10948;BME280;5526;42.070;24.752;2022-07-29T00:51:44;98980.97;;;23.62;74.69
10948;BME280;5526;42.070;24.752;2022-07-29T00:54:12;98980.63;;;23.63;75.04
10948;BME280;5526;42.070;24.752;2022-07-29T00:56:39;98978.50;;;23.57;75.22
10948;BME280;5526;42.070;24.752;2022-07-29T00:59:06;98985.44;;;23.58;74.89
10948;BME280;5526;42.070;24.752;2022-07-29T01:01:33;98993.09;;;23.56;74.96
10948;BME280;5526;42.070;24.752;2022-07-29T01:04:01;98992.19;;;23.52;75.22
10948;BME280;5526;42.070;24.752;2022-07-29T01:06:29;98988.03;;;23.54;75.27
10948;BME280;5526;42.070;24.752;2022-07-29T01:08:57;98979.66;;;23.56;75.27
10948;BME280;5526;42.070;24.752;2022-07-29T01:11:25;98977.97;;;23.51;75.63
10948;BME280;5526;42.070;24.752;2022-07-29T01:13:52;98977.63;;;23.53;75.61
10948;BME280;5526;42.070;24.752;2022-07-29T01:16:24;98986.34;;;23.50;75.80
10948;BME280;5526;42.070;24.752;2022-07-29T01:18:56;98991.41;;;23.51;75.13
10948;BME280;5526;42.070;24.752;2022-07-29T01:21:50;98988.94;;;23.46;75.84
10948;BME280;5526;42.070;24.752;2022-07-29T01:24:33;98979.19;;;23.42;75.04
10948;BME280;5526;42.070;24.752;2022-07-29T01:27:10;98982.47;;;23.35;74.56
10948;BME280;5526;42.070;24.752;2022-07-29T01:29:49;98987.50;;;23.25;74.08
10948;BME280;5526;42.070;24.752;2022-07-29T01:32:26;98992.75;;;23.21;73.92
10948;BME280;5526;42.070;24.752;2022-07-29T01:34:57;98987.13;;;23.14;74.10
10948;BME280;5526;42.070;24.752;2022-07-29T01:37:29;98988.69;;;23.15;74.03
10948;BME280;5526;42.070;24.752;2022-07-29T01:40:00;98981.66;;;23.11;74.17
10948;BME280;5526;42.070;24.752;2022-07-29T01:42:34;98982.09;;;23.13;74.18
10948;BME280;5526;42.070;24.752;2022-07-29T01:45:08;98990.94;;;23.13;73.97
10948;BME280;5526;42.070;24.752;2022-07-29T01:47:40;98977.59;;;23.05;74.13
10948;BME280;5526;42.070;24.752;2022-07-29T01:50:12;98979.28;;;23.09;74.24
10948;BME280;5526;42.070;24.752;2022-07-29T01:52:44;98984.00;;;23.12;74.32
10948;BME280;5526;42.070;24.752;2022-07-29T01:55:15;98980.84;;;23.10;74.24
10948;BME280;5526;42.070;24.752;2022-07-29T01:57:46;98976.59;;;23.09;74.31
10948;BME280;5526;42.070;24.752;2022-07-29T02:00:16;98979.19;;;23.06;74.13
10948;BME280;5526;42.070;24.752;2022-07-29T02:02:45;98981.88;;;23.06;73.95
10948;BME280;5526;42.070;24.752;2022-07-29T02:05:16;98981.53;;;23.07;73.76
10948;BME280;5526;42.070;24.752;2022-07-29T02:07:46;98981.88;;;23.06;73.31
10948;BME280;5526;42.070;24.752;2022-07-29T02:10:14;98981.75;;;23.02;73.34
10948;BME280;5526;42.070;24.752;2022-07-29T02:12:43;98976.69;;;23.01;73.58
10948;BME280;5526;42.070;24.752;2022-07-29T02:15:12;98977.50;;;23.01;73.83
10948;BME280;5526;42.070;24.752;2022-07-29T02:17:45;98974.81;;;23.01;73.51
10948;BME280;5526;42.070;24.752;2022-07-29T02:20:13;98973.25;;;23.00;73.68
10948;BME280;5526;42.070;24.752;2022-07-29T02:22:41;98970.66;;;23.04;73.59
10948;BME280;5526;42.070;24.752;2022-07-29T02:25:10;98974.16;;;23.04;72.78
10948;BME280;5526;42.070;24.752;2022-07-29T02:27:38;98965.44;;;23.07;72.53
10948;BME280;5526;42.070;24.752;2022-07-29T02:30:08;98962.63;;;23.04;73.18
10948;BME280;5526;42.070;24.752;2022-07-29T02:32:37;98958.38;;;23.03;73.57
10948;BME280;5526;42.070;24.752;2022-07-29T02:35:09;98960.25;;;23.02;73.77
10948;BME280;5526;42.070;24.752;2022-07-29T02:37:37;98955.47;;;22.96;74.12
10948;BME280;5526;42.070;24.752;2022-07-29T02:40:07;98962.06;;;22.98;74.04
10948;BME280;5526;42.070;24.752;2022-07-29T02:42:36;98961.94;;;22.95;74.42
10948;BME280;5526;42.070;24.752;2022-07-29T02:45:05;98946.50;;;22.92;74.27
10948;BME280;5526;42.070;24.752;2022-07-29T02:47:36;98964.31;;;22.96;73.95
10948;BME280;5526;42.070;24.752;2022-07-29T02:50:12;98963.41;;;22.92;73.65
10948;BME280;5526;42.070;24.752;2022-07-29T02:52:43;98964.84;;;22.90;74.53
10948;BME280;5526;42.070;24.752;2022-07-29T02:55:16;98960.38;;;22.82;74.56
10948;BME280;5526;42.070;24.752;2022-07-29T02:57:49;98966.06;;;22.80;74.56
10948;BME280;5526;42.070;24.752;2022-07-29T03:00:18;98966.50;;;22.82;74.72
10948;BME280;5526;42.070;24.752;2022-07-29T03:02:49;98964.94;;;22.81;74.98
10948;BME280;5526;42.070;24.752;2022-07-29T03:05:20;98963.59;;;22.75;75.73
10948;BME280;5526;42.070;24.752;2022-07-29T03:07:51;98970.88;;;22.75;76.07
10948;BME280;5526;42.070;24.752;2022-07-29T03:10:20;98967.06;;;22.76;76.29
10948;BME280;5526;42.070;24.752;2022-07-29T03:12:48;98964.38;;;22.76;76.03
10948;BME280;5526;42.070;24.752;2022-07-29T03:15:15;98967.53;;;22.78;75.92
10948;BME280;5526;42.070;24.752;2022-07-29T03:17:43;98974.13;;;22.80;76.12
10948;BME280;5526;42.070;24.752;2022-07-29T03:20:11;98974.69;;;22.86;76.08
10948;BME280;5526;42.070;24.752;2022-07-29T03:22:41;98977.59;;;22.93;76.05
10948;BME280;5526;42.070;24.752;2022-07-29T03:25:10;98972.59;;;23.03;75.88
10948;BME280;5526;42.070;24.752;2022-07-29T03:27:38;98984.00;;;23.12;74.96
10948;BME280;5526;42.070;24.752;2022-07-29T03:30:06;98977.25;;;22.94;74.72
10948;BME280;5526;42.070;24.752;2022-07-29T03:32:34;98993.25;;;22.91;75.13
10948;BME280;5526;42.070;24.752;2022-07-29T03:35:01;98995.13;;;22.78;74.97
10948;BME280;5526;42.070;24.752;2022-07-29T03:37:29;98985.31;;;22.82;74.55
10948;BME280;5526;42.070;24.752;2022-07-29T03:39:58;98991.16;;;23.08;73.34
10948;BME280;5526;42.070;24.752;2022-07-29T03:42:28;98983.78;;;23.29;72.84
10948;BME280;5526;42.070;24.752;2022-07-29T03:44:58;98994.50;;;23.53;72.53
10948;BME280;5526;42.070;24.752;2022-07-29T03:47:29;98994.06;;;23.63;71.59
10948;BME280;5526;42.070;24.752;2022-07-29T03:50:00;99001.25;;;23.59;71.54
10948;BME280;5526;42.070;24.752;2022-07-29T03:52:29;98999.44;;;23.63;71.09
10948;BME280;5526;42.070;24.752;2022-07-29T03:54:58;98997.31;;;23.69;69.57
10948;BME280;5526;42.070;24.752;2022-07-29T03:57:28;99002.69;;;23.57;69.76
10948;BME280;5526;42.070;24.752;2022-07-29T03:59:57;98998.97;;;23.61;69.69
10948;BME280;5526;42.070;24.752;2022-07-29T04:02:25;99000.22;;;23.64;69.76
10948;BME280;5526;42.070;24.752;2022-07-29T04:04:53;99008.38;;;23.67;69.67
10948;BME280;5526;42.070;24.752;2022-07-29T04:07:20;99010.25;;;23.79;68.75
10948;BME280;5526;42.070;24.752;2022-07-29T04:09:47;98998.72;;;23.90;68.46
10948;BME280;5526;42.070;24.752;2022-07-29T04:12:16;99004.66;;;23.96;68.21
10948;BME280;5526;42.070;24.752;2022-07-29T04:14:43;99000.00;;;24.08;67.80
10948;BME280;5526;42.070;24.752;2022-07-29T04:17:11;99014.56;;;24.19;67.59
10948;BME280;5526;42.070;24.752;2022-07-29T04:19:38;99012.03;;;24.11;68.40
10948;BME280;5526;42.070;24.752;2022-07-29T04:22:05;99015.94;;;24.13;69.00
10948;BME280;5526;42.070;24.752;2022-07-29T04:24:32;99017.63;;;24.06;69.67
10948;BME280;5526;42.070;24.752;2022-07-29T04:26:59;99016.72;;;24.02;70.08
10948;BME280;5526;42.070;24.752;2022-07-29T04:29:28;99019.66;;;23.97;70.68
10948;BME280;5526;42.070;24.752;2022-07-29T04:31:56;99018.41;;;24.06;70.21
10948;BME280;5526;42.070;24.752;2022-07-29T04:34:23;99007.47;;;24.27;69.42
10948;BME280;5526;42.070;24.752;2022-07-29T04:36:50;99014.03;;;24.41;68.66
10948;BME280;5526;42.070;24.752;2022-07-29T04:39:17;99008.81;;;24.76;67.31
10948;BME280;5526;42.070;24.752;2022-07-29T04:41:44;99010.28;;;24.74;66.78
10948;BME280;5526;42.070;24.752;2022-07-29T04:44:12;99006.38;;;24.71;66.44
10948;BME280;5526;42.070;24.752;2022-07-29T04:46:41;99014.47;;;24.71;66.38
10948;BME280;5526;42.070;24.752;2022-07-29T04:49:08;99018.75;;;24.88;66.00
10948;BME280;5526;42.070;24.752;2022-07-29T04:51:35;99021.97;;;25.09;64.99
10948;BME280;5526;42.070;24.752;2022-07-29T04:54:03;99027.63;;;25.04;65.00
10948;BME280;5526;42.070;24.752;2022-07-29T04:56:30;99023.28;;;25.30;64.27
10948;BME280;5526;42.070;24.752;2022-07-29T04:58:58;99028.47;;;25.23;63.65
10948;BME280;5526;42.070;24.752;2022-07-29T05:01:25;99021.91;;;25.36;63.65
10948;BME280;5526;42.070;24.752;2022-07-29T05:03:53;99029.03;;;25.44;62.98
10948;BME280;5526;42.070;24.752;2022-07-29T05:06:20;99029.72;;;25.76;62.35
10948;BME280;5526;42.070;24.752;2022-07-29T05:08:48;99028.22;;;25.78;62.11
10948;BME280;5526;42.070;24.752;2022-07-29T05:11:15;99037.00;;;26.06;61.90
10948;BME280;5526;42.070;24.752;2022-07-29T05:13:42;99041.31;;;26.30;61.41
10948;BME280;5526;42.070;24.752;2022-07-29T05:16:10;99039.81;;;26.51;61.22
10948;BME280;5526;42.070;24.752;2022-07-29T05:18:38;99042.34;;;26.60;61.11
10948;BME280;5526;42.070;24.752;2022-07-29T05:21:07;99040.38;;;26.79;60.70
10948;BME280;5526;42.070;24.752;2022-07-29T05:23:34;99041.28;;;26.87;60.00
10948;BME280;5526;42.070;24.752;2022-07-29T05:26:01;99039.31;;;27.06;59.31
10948;BME280;5526;42.070;24.752;2022-07-29T05:28:28;99043.53;;;27.26;59.23
10948;BME280;5526;42.070;24.752;2022-07-29T05:30:55;99047.53;;;27.36;59.53
10948;BME280;5526;42.070;24.752;2022-07-29T05:33:23;99048.06;;;27.45;59.67
10948;BME280;5526;42.070;24.752;2022-07-29T05:35:50;99046.41;;;27.63;58.82
10948;BME280;5526;42.070;24.752;2022-07-29T05:38:19;99046.53;;;27.70;58.38
10948;BME280;5526;42.070;24.752;2022-07-29T05:40:46;99053.75;;;27.85;57.80
10948;BME280;5526;42.070;24.752;2022-07-29T05:43:13;99044.81;;;28.11;56.95
10948;BME280;5526;42.070;24.752;2022-07-29T05:45:40;99054.66;;;27.70;57.95
10948;BME280;5526;42.070;24.752;2022-07-29T05:48:07;99054.97;;;27.91;57.24
10948;BME280;5526;42.070;24.752;2022-07-29T05:50:34;99055.31;;;28.45;55.68
10948;BME280;5526;42.070;24.752;2022-07-29T05:53:02;99060.19;;;28.66;55.54
10948;BME280;5526;42.070;24.752;2022-07-29T05:55:30;99056.50;;;28.84;54.48
10948;BME280;5526;42.070;24.752;2022-07-29T05:57:58;99068.00;;;28.74;54.61
10948;BME280;5526;42.070;24.752;2022-07-29T06:00:25;99062.63;;;28.78;54.57
10948;BME280;5526;42.070;24.752;2022-07-29T06:02:52;99065.28;;;28.74;54.71
10948;BME280;5526;42.070;24.752;2022-07-29T06:05:19;99069.22;;;28.77;54.39
10948;BME280;5526;42.070;24.752;2022-07-29T06:07:47;99061.91;;;28.81;54.40
10948;BME280;5526;42.070;24.752;2022-07-29T06:10:14;99071.09;;;29.09;53.72
10948;BME280;5526;42.070;24.752;2022-07-29T06:12:43;99068.34;;;29.49;52.22
10948;BME280;5526;42.070;24.752;2022-07-29T06:15:10;99064.72;;;29.35;52.38
10948;BME280;5526;42.070;24.752;2022-07-29T06:17:37;99068.97;;;29.29;52.40
10948;BME280;5526;42.070;24.752;2022-07-29T06:20:05;99071.53;;;28.78;54.00
10948;BME280;5526;42.070;24.752;2022-07-29T06:22:32;99068.06;;;29.14;53.21
10948;BME280;5526;42.070;24.752;2022-07-29T06:25:01;99065.66;;;29.53;51.96
10948;BME280;5526;42.070;24.752;2022-07-29T06:27:28;99061.66;;;29.36;52.31
10948;BME280;5526;42.070;24.752;2022-07-29T06:29:57;99062.00;;;29.82;50.92
10948;BME280;5526;42.070;24.752;2022-07-29T06:32:24;99069.06;;;29.93;51.75
10948;BME280;5526;42.070;24.752;2022-07-29T06:34:51;99063.63;;;29.97;51.41
10948;BME280;5526;42.070;24.752;2022-07-29T06:37:19;99064.38;;;29.87;51.56
10948;BME280;5526;42.070;24.752;2022-07-29T06:39:47;99062.56;;;30.12;50.23
10948;BME280;5526;42.070;24.752;2022-07-29T06:42:34;99069.38;;;29.81;51.02
10948;BME280;5526;42.070;24.752;2022-07-29T06:45:03;99056.66;;;29.99;50.25
10948;BME280;5526;42.070;24.752;2022-07-29T06:47:31;99062.19;;;30.10;50.35
10948;BME280;5526;42.070;24.752;2022-07-29T06:49:58;99063.41;;;30.19;48.92
10948;BME280;5526;42.070;24.752;2022-07-29T06:52:25;99054.47;;;30.15;49.29
10948;BME280;5526;42.070;24.752;2022-07-29T06:54:52;99060.00;;;30.40;48.08
10948;BME280;5526;42.070;24.752;2022-07-29T06:57:20;99055.09;;;30.77;47.35
10948;BME280;5526;42.070;24.752;2022-07-29T06:59:48;99057.06;;;30.94;46.81
10948;BME280;5526;42.070;24.752;2022-07-29T07:02:16;99060.97;;;31.03;45.89
10948;BME280;5526;42.070;24.752;2022-07-29T07:04:44;99055.09;;;30.77;47.02
10948;BME280;5526;42.070;24.752;2022-07-29T07:07:11;99056.72;;;31.20;45.47
10948;BME280;5526;42.070;24.752;2022-07-29T07:09:38;99048.16;;;30.97;46.19
10948;BME280;5526;42.070;24.752;2022-07-29T07:12:06;99057.09;;;30.97;45.93
10948;BME280;5526;42.070;24.752;2022-07-29T07:14:33;99045.31;;;30.51;46.98
10948;BME280;5526;42.070;24.752;2022-07-29T07:17:00;99051.16;;;30.67;46.88
10948;BME280;5526;42.070;24.752;2022-07-29T07:19:31;99048.53;;;31.02;45.60
10948;BME280;5526;42.070;24.752;2022-07-29T07:21:58;99053.63;;;31.28;44.89
10948;BME280;5526;42.070;24.752;2022-07-29T07:24:25;99048.13;;;31.11;44.99
10948;BME280;5526;42.070;24.752;2022-07-29T07:26:52;99052.41;;;31.08;45.32
10948;BME280;5526;42.070;24.752;2022-07-29T07:29:19;99056.34;;;31.32;43.84
10948;BME280;5526;42.070;24.752;2022-07-29T07:31:47;99052.84;;;31.35;43.61
10948;BME280;5526;42.070;24.752;2022-07-29T07:34:14;99050.13;;;31.49;43.50
10948;BME280;5526;42.070;24.752;2022-07-29T07:36:43;99053.19;;;31.58;43.10
10948;BME280;5526;42.070;24.752;2022-07-29T07:39:10;99051.25;;;31.83;42.41
10948;BME280;5526;42.070;24.752;2022-07-29T07:41:37;99050.09;;;31.88;42.28
10948;BME280;5526;42.070;24.752;2022-07-29T07:44:04;99044.97;;;32.07;41.25
10948;BME280;5526;42.070;24.752;2022-07-29T07:46:31;99037.59;;;32.08;41.40
10948;BME280;5526;42.070;24.752;2022-07-29T07:48:59;99037.56;;;32.04;41.69
10948;BME280;5526;42.070;24.752;2022-07-29T07:51:26;99046.91;;;32.07;41.36
10948;BME280;5526;42.070;24.752;2022-07-29T07:53:55;99036.44;;;32.05;40.72
10948;BME280;5526;42.070;24.752;2022-07-29T07:56:22;99039.97;;;31.63;42.05
10948;BME280;5526;42.070;24.752;2022-07-29T07:58:49;99036.13;;;31.19;42.75
10948;BME280;5526;42.070;24.752;2022-07-29T08:01:16;99037.31;;;31.32;42.62
10948;BME280;5526;42.070;24.752;2022-07-29T08:03:45;99041.56;;;31.50;42.36
10948;BME280;5526;42.070;24.752;2022-07-29T08:06:12;99033.78;;;31.81;41.33
10948;BME280;5526;42.070;24.752;2022-07-29T08:08:39;99041.94;;;31.88;40.77
10948;BME280;5526;42.070;24.752;2022-07-29T08:11:08;99031.31;;;32.18;39.79
10948;BME280;5526;42.070;24.752;2022-07-29T08:13:35;99036.34;;;32.19;39.54
10948;BME280;5526;42.070;24.752;2022-07-29T08:16:03;99040.75;;;31.85;41.21
10948;BME280;5526;42.070;24.752;2022-07-29T08:18:38;99031.28;;;32.32;39.24
10948;BME280;5526;42.070;24.752;2022-07-29T08:21:06;99033.41;;;32.72;38.70
10948;BME280;5526;42.070;24.752;2022-07-29T08:23:33;99036.56;;;32.67;37.73
10948;BME280;5526;42.070;24.752;2022-07-29T08:26:04;99027.50;;;32.80;37.30
10948;BME280;5526;42.070;24.752;2022-07-29T08:28:37;99021.66;;;32.78;36.70
10948;BME280;5526;42.070;24.752;2022-07-29T08:31:05;99024.41;;;32.82;37.75
10948;BME280;5526;42.070;24.752;2022-07-29T08:33:33;99018.53;;;32.80;37.43
10948;BME280;5526;42.070;24.752;2022-07-29T08:36:00;99030.69;;;32.68;37.28
10948;BME280;5526;42.070;24.752;2022-07-29T08:38:27;99013.22;;;32.59;37.17
10948;BME280;5526;42.070;24.752;2022-07-29T08:40:55;99023.28;;;32.69;37.36
10948;BME280;5526;42.070;24.752;2022-07-29T08:43:22;99016.59;;;32.77;36.93
10948;BME280;5526;42.070;24.752;2022-07-29T08:45:52;99007.94;;;32.99;35.38
10948;BME280;5526;42.070;24.752;2022-07-29T08:48:21;99012.88;;;33.11;34.94
10948;BME280;5526;42.070;24.752;2022-07-29T08:50:53;99002.63;;;33.26;34.43
10948;BME280;5526;42.070;24.752;2022-07-29T08:53:21;99001.09;;;33.21;34.71
10948;BME280;5526;42.070;24.752;2022-07-29T08:55:52;99001.78;;;33.36;35.58
10948;BME280;5526;42.070;24.752;2022-07-29T08:58:20;99001.78;;;33.73;35.28
10948;BME280;5526;42.070;24.752;2022-07-29T09:00:53;98994.97;;;33.91;31.72
10948;BME280;5526;42.070;24.752;2022-07-29T09:03:23;98995.53;;;34.09;30.89
10948;BME280;5526;42.070;24.752;2022-07-29T09:05:51;98983.69;;;34.19;31.20
10948;BME280;5526;42.070;24.752;2022-07-29T09:08:19;98993.03;;;34.22;30.90
10948;BME280;5526;42.070;24.752;2022-07-29T09:10:46;98989.91;;;33.90;29.89
10948;BME280;5526;42.070;24.752;2022-07-29T09:13:14;98990.47;;;34.08;29.27
10948;BME280;5526;42.070;24.752;2022-07-29T09:15:41;98992.25;;;34.21;29.45
10948;BME280;5526;42.070;24.752;2022-07-29T09:18:10;98987.47;;;34.32;28.57
10948;BME280;5526;42.070;24.752;2022-07-29T09:20:37;98981.66;;;33.97;28.51
10948;BME280;5526;42.070;24.752;2022-07-29T09:23:22;98983.03;;;33.75;28.59
10948;BME280;5526;42.070;24.752;2022-07-29T09:25:49;98978.66;;;33.84;29.02
10948;BME280;5526;42.070;24.752;2022-07-29T09:28:17;98983.84;;;34.09;27.82
10948;BME280;5526;42.070;24.752;2022-07-29T09:30:50;98971.84;;;34.29;28.26
10948;BME280;5526;42.070;24.752;2022-07-29T09:33:20;98968.91;;;34.47;28.80
10948;BME280;5526;42.070;24.752;2022-07-29T09:35:59;98966.00;;;34.84;28.11
10948;BME280;5526;42.070;24.752;2022-07-29T09:38:27;98972.56;;;34.90;28.05
10948;BME280;5526;42.070;24.752;2022-07-29T09:40:56;98968.09;;;34.73;27.46
10948;BME280;5526;42.070;24.752;2022-07-29T09:43:24;98975.81;;;34.55;27.91
10948;BME280;5526;42.070;24.752;2022-07-29T09:45:51;98965.91;;;34.64;27.37
10948;BME280;5526;42.070;24.752;2022-07-29T09:48:22;98954.88;;;34.94;27.20
10948;BME280;5526;42.070;24.752;2022-07-29T09:50:50;98964.34;;;35.13;26.34
10948;BME280;5526;42.070;24.752;2022-07-29T09:53:31;98961.06;;;35.22;24.76
10948;BME280;5526;42.070;24.752;2022-07-29T09:55:58;98962.16;;;35.05;26.08
10948;BME280;5526;42.070;24.752;2022-07-29T09:58:25;98951.63;;;35.03;27.02
10948;BME280;5526;42.070;24.752;2022-07-29T10:00:53;98955.75;;;35.15;26.96
10948;BME280;5526;42.070;24.752;2022-07-29T10:03:23;98943.06;;;34.74;26.04
10948;BME280;5526;42.070;24.752;2022-07-29T10:06:05;98950.16;;;34.72;26.54
10948;BME280;5526;42.070;24.752;2022-07-29T10:08:32;98955.63;;;34.72;26.40
10948;BME280;5526;42.070;24.752;2022-07-29T10:11:09;98943.47;;;34.73;25.60
10948;BME280;5526;42.070;24.752;2022-07-29T10:13:38;98944.00;;;34.91;26.32
10948;BME280;5526;42.070;24.752;2022-07-29T10:16:05;98945.97;;;35.14;25.97
10948;BME280;5526;42.070;24.752;2022-07-29T10:18:35;98944.13;;;35.30;26.80
10948;BME280;5526;42.070;24.752;2022-07-29T10:21:04;98942.88;;;35.54;26.38
10948;BME280;5526;42.070;24.752;2022-07-29T10:23:33;98943.97;;;35.60;25.77
10948;BME280;5526;42.070;24.752;2022-07-29T10:26:01;98949.63;;;35.69;25.90
10948;BME280;5526;42.070;24.752;2022-07-29T10:28:30;98942.13;;;35.73;24.74
10948;BME280;5526;42.070;24.752;2022-07-29T10:31:02;98939.06;;;35.71;23.84
10948;BME280;5526;42.070;24.752;2022-07-29T10:33:44;98934.63;;;35.97;23.93
10948;BME280;5526;42.070;24.752;2022-07-29T10:36:27;98933.34;;;35.62;23.19
10948;BME280;5526;42.070;24.752;2022-07-29T10:39:05;98937.94;;;35.88;25.48
10948;BME280;5526;42.070;24.752;2022-07-29T10:41:52;98923.44;;;36.07;24.23
10948;BME280;5526;42.070;24.752;2022-07-29T10:44:23;98923.28;;;36.14;25.16
10948;BME280;5526;42.070;24.752;2022-07-29T10:46:53;98924.13;;;36.11;25.08
10948;BME280;5526;42.070;24.752;2022-07-29T10:49:22;98914.59;;;36.35;25.05
10948;BME280;5526;42.070;24.752;2022-07-29T10:52:03;98910.13;;;36.41;23.97
10948;BME280;5526;42.070;24.752;2022-07-29T10:54:45;98907.53;;;36.70;23.96
10948;BME280;5526;42.070;24.752;2022-07-29T10:57:26;98899.69;;;36.84;24.43
10948;BME280;5526;42.070;24.752;2022-07-29T11:00:31;98891.47;;;36.52;24.00
10948;BME280;5526;42.070;24.752;2022-07-29T11:02:59;98887.53;;;36.53;24.03
10948;BME280;5526;42.070;24.752;2022-07-29T11:05:28;98891.81;;;36.38;24.63
10948;BME280;5526;42.070;24.752;2022-07-29T11:08:22;98884.97;;;36.30;24.44
10948;BME280;5526;42.070;24.752;2022-07-29T11:10:53;98881.44;;;36.30;25.15
10948;BME280;5526;42.070;24.752;2022-07-29T11:13:48;98874.50;;;36.57;25.37
10948;BME280;5526;42.070;24.752;2022-07-29T11:16:16;98882.06;;;36.69;25.34
10948;BME280;5526;42.070;24.752;2022-07-29T11:19:21;98887.34;;;36.60;25.35
10948;BME280;5526;42.070;24.752;2022-07-29T11:21:50;98882.66;;;36.29;26.06
10948;BME280;5526;42.070;24.752;2022-07-29T11:24:20;98868.56;;;36.27;25.29
10948;BME280;5526;42.070;24.752;2022-07-29T11:27:08;98875.09;;;36.65;25.29
10948;BME280;5526;42.070;24.752;2022-07-29T11:29:39;98872.13;;;36.75;25.49
10948;BME280;5526;42.070;24.752;2022-07-29T11:32:11;98873.41;;;36.87;24.77
10948;BME280;5526;42.070;24.752;2022-07-29T11:34:40;98859.09;;;37.08;24.92
10948;BME280;5526;42.070;24.752;2022-07-29T11:37:22;98857.63;;;37.19;24.81
10948;BME280;5526;42.070;24.752;2022-07-29T11:40:14;98852.25;;;37.16;24.40
10948;BME280;5526;42.070;24.752;2022-07-29T11:42:45;98853.16;;;36.81;25.10
10948;BME280;5526;42.070;24.752;2022-07-29T11:45:14;98856.25;;;37.11;24.97
10948;BME280;5526;42.070;24.752;2022-07-29T11:47:48;98847.59;;;37.13;25.41
10948;BME280;5526;42.070;24.752;2022-07-29T11:50:26;98843.50;;;37.33;24.42
10948;BME280;5526;42.070;24.752;2022-07-29T11:52:55;98847.28;;;37.52;24.52
10948;BME280;5526;42.070;24.752;2022-07-29T11:55:24;98849.94;;;37.55;24.76
10948;BME280;5526;42.070;24.752;2022-07-29T11:57:53;98830.19;;;37.60;24.45
10948;BME280;5526;42.070;24.752;2022-07-29T12:00:23;98832.31;;;37.69;24.80
10948;BME280;5526;42.070;24.752;2022-07-29T12:02:51;98824.34;;;37.46;24.45
10948;BME280;5526;42.070;24.752;2022-07-29T12:05:19;98835.00;;;37.15;24.96
10948;BME280;5526;42.070;24.752;2022-07-29T12:07:47;98825.56;;;37.16;24.27
10948;BME280;5526;42.070;24.752;2022-07-29T12:10:16;98830.72;;;36.38;25.30
10948;BME280;5526;42.070;24.752;2022-07-29T12:12:51;98825.31;;;36.50;25.22
10948;BME280;5526;42.070;24.752;2022-07-29T12:15:19;98828.91;;;36.47;25.08
10948;BME280;5526;42.070;24.752;2022-07-29T12:17:47;98823.50;;;36.28;25.36
10948;BME280;5526;42.070;24.752;2022-07-29T12:20:22;98820.56;;;36.03;25.50
10948;BME280;5526;42.070;24.752;2022-07-29T12:22:50;98821.63;;;36.09;25.73
10948;BME280;5526;42.070;24.752;2022-07-29T12:25:21;98817.41;;;36.52;25.33
10948;BME280;5526;42.070;24.752;2022-07-29T12:27:58;98817.16;;;37.07;24.37
10948;BME280;5526;42.070;24.752;2022-07-29T12:30:35;98814.47;;;37.20;24.83
10948;BME280;5526;42.070;24.752;2022-07-29T12:33:14;98813.84;;;37.28;24.47
10948;BME280;5526;42.070;24.752;2022-07-29T12:35:43;98820.56;;;37.11;24.29
10948;BME280;5526;42.070;24.752;2022-07-29T12:38:11;98812.09;;;37.34;24.45
10948;BME280;5526;42.070;24.752;2022-07-29T12:40:41;98812.00;;;37.50;24.21
10948;BME280;5526;42.070;24.752;2022-07-29T12:43:10;98802.28;;;37.74;24.32
10948;BME280;5526;42.070;24.752;2022-07-29T12:45:38;98809.88;;;37.70;24.63
10948;BME280;5526;42.070;24.752;2022-07-29T12:48:07;98804.47;;;37.92;24.89
10948;BME280;5526;42.070;24.752;2022-07-29T12:50:35;98799.34;;;38.06;24.13
10948;BME280;5526;42.070;24.752;2022-07-29T12:53:10;98792.50;;;38.11;24.09
10948;BME280;5526;42.070;24.752;2022-07-29T12:55:40;98792.38;;;38.27;24.08
10948;BME280;5526;42.070;24.752;2022-07-29T12:58:08;98794.94;;;38.09;24.16
10948;BME280;5526;42.070;24.752;2022-07-29T13:00:36;98783.31;;;38.05;24.37
10948;BME280;5526;42.070;24.752;2022-07-29T13:03:03;98783.50;;;37.85;24.98
10948;BME280;5526;42.070;24.752;2022-07-29T13:05:41;98772.72;;;38.03;24.46
10948;BME280;5526;42.070;24.752;2022-07-29T13:08:13;98776.00;;;38.23;24.75
10948;BME280;5526;42.070;24.752;2022-07-29T13:10:42;98771.94;;;38.15;24.29
10948;BME280;5526;42.070;24.752;2022-07-29T13:13:12;98774.03;;;38.24;24.11
10948;BME280;5526;42.070;24.752;2022-07-29T13:15:41;98765.03;;;37.73;25.19